createdAt,value
2022-08-03T00:00:35.155Z,20.20
2022-08-03T00:03:02.227Z,20.20
2022-08-03T00:05:29.239Z,20.20
2022-08-03T00:07:56.162Z,20.10
2022-08-03T00:10:23.176Z,20.10
2022-08-03T00:12:53.280Z,20.10
2022-08-03T00:15:20.417Z,20.10
2022-08-03T00:17:52.461Z,20.10
2022-08-03T00:20:21.925Z,20.10
2022-08-03T00:22:49.711Z,20.10
2022-08-03T00:25:16.939Z,20.10
2022-08-03T00:27:43.865Z,20.00
2022-08-03T00:30:13.313Z,20.00
2022-08-03T00:32:45.077Z,20.00
2022-08-03T00:35:25.141Z,20.00
2022-08-03T00:37:59.619Z,19.90
2022-08-03T00:40:26.938Z,19.90
2022-08-03T00:43:03.253Z,19.90
2022-08-03T00:45:34.083Z,19.90
2022-08-03T00:48:05.332Z,19.90
2022-08-03T00:50:35.330Z,19.80
2022-08-03T00:53:04.970Z,19.80
2022-08-03T00:55:32.165Z,19.80
2022-08-03T00:58:06.465Z,19.80
2022-08-03T01:00:42.053Z,19.80
2022-08-03T01:03:10.518Z,19.80
2022-08-03T01:06:19.646Z,19.70
2022-08-03T01:08:54.928Z,19.70
2022-08-03T01:12:00.134Z,19.70
2022-08-03T01:14:39.176Z,19.70
2022-08-03T01:17:21.415Z,19.70
2022-08-03T01:20:04.809Z,19.70
2022-08-03T01:22:58.883Z,19.60
2022-08-03T01:25:34.276Z,19.60
2022-08-03T01:28:17.844Z,19.60
2022-08-03T01:30:48.774Z,19.60
2022-08-03T01:33:18.423Z,19.60
2022-08-03T01:35:50.930Z,19.60
2022-08-03T01:38:48.595Z,19.60
2022-08-03T01:41:20.460Z,19.60
2022-08-03T01:43:55.331Z,19.50
2022-08-03T01:46:39.069Z,19.50
2022-08-03T01:49:10.467Z,19.50
2022-08-03T01:52:03.635Z,19.50
2022-08-03T01:54:36.643Z,19.50
2022-08-03T01:57:04.755Z,19.50
2022-08-03T01:59:34.521Z,19.50
2022-08-03T02:02:32.070Z,19.50
2022-08-03T02:04:52.629Z,19.50
2022-08-03T02:07:22.729Z,19.40
2022-08-03T02:09:52.607Z,19.50
2022-08-03T02:12:20.954Z,19.40
2022-08-03T02:14:51.779Z,19.40
2022-08-03T02:17:39.349Z,19.40
2022-08-03T02:20:08.751Z,19.40
2022-08-03T02:22:39.248Z,19.40
2022-08-03T02:25:13.565Z,19.40
2022-08-03T02:27:58.100Z,19.30
2022-08-03T02:30:38.627Z,19.30
2022-08-03T02:33:13.285Z,19.30
2022-08-03T02:35:44.354Z,19.30
2022-08-03T02:38:12.817Z,19.30
2022-08-03T02:40:42.381Z,19.30
2022-08-03T02:43:12.851Z,19.30
2022-08-03T02:45:45.734Z,19.30
2022-08-03T02:48:18.313Z,19.30
2022-08-03T02:50:46.593Z,19.30
2022-08-03T02:53:16.078Z,19.30
2022-08-03T02:55:45.900Z,19.20
2022-08-03T02:58:14.410Z,19.30
2022-08-03T03:00:44.119Z,19.20
2022-08-03T03:03:14.422Z,19.20
2022-08-03T03:05:54.775Z,19.20
2022-08-03T03:08:28.112Z,19.20
2022-08-03T03:11:03.222Z,19.20
2022-08-03T03:13:31.810Z,19.20
2022-08-03T03:16:02.606Z,19.20
2022-08-03T03:18:32.187Z,19.20
2022-08-03T03:21:01.626Z,19.20
2022-08-03T03:23:30.730Z,19.20
2022-08-03T03:26:02.337Z,19.10
2022-08-03T03:28:32.403Z,19.10
2022-08-03T03:31:00.115Z,19.10
2022-08-03T03:33:28.608Z,19.10
2022-08-03T03:35:56.278Z,19.10
2022-08-03T03:38:27.967Z,19.10
2022-08-03T03:40:57.570Z,19.10
2022-08-03T03:43:27.176Z,19.00
2022-08-03T03:45:58.053Z,19.10
2022-08-03T03:48:28.063Z,19.00
2022-08-03T03:50:57.277Z,19.00
2022-08-03T03:53:24.419Z,19.00
2022-08-03T03:55:59.639Z,19.00
2022-08-03T03:58:33.457Z,19.00
2022-08-03T04:01:01.264Z,19.00
2022-08-03T04:03:28.581Z,18.90
2022-08-03T04:06:14.451Z,18.90
2022-08-03T04:08:59.887Z,18.90
2022-08-03T04:11:31.906Z,18.90
2022-08-03T04:14:08.049Z,18.90
2022-08-03T04:16:43.850Z,18.90
2022-08-03T04:19:22.932Z,18.90
2022-08-03T04:21:57.662Z,18.90
2022-08-03T04:24:28.798Z,18.90
2022-08-03T04:26:57.383Z,18.90
2022-08-03T04:29:28.388Z,18.90
2022-08-03T04:32:00.381Z,18.90
2022-08-03T04:34:28.149Z,18.90
2022-08-03T04:37:02.147Z,18.90
2022-08-03T04:39:34.121Z,18.90
2022-08-03T04:42:08.631Z,18.90
2022-08-03T04:44:42.905Z,18.90
2022-08-03T04:47:09.908Z,19.00
2022-08-03T04:49:38.558Z,18.90
2022-08-03T04:52:10.427Z,18.90
2022-08-03T04:54:50.129Z,19.00
2022-08-03T04:57:23.157Z,18.90
2022-08-03T05:00:02.699Z,18.90
2022-08-03T05:02:33.605Z,18.90
2022-08-03T05:05:00.623Z,19.00
2022-08-03T05:07:35.378Z,19.00
2022-08-03T05:10:16.376Z,19.00
2022-08-03T05:12:48.109Z,19.10
2022-08-03T05:15:17.639Z,19.10
2022-08-03T05:17:47.193Z,19.10
2022-08-03T05:20:16.655Z,19.10
2022-08-03T05:22:45.973Z,19.20
2022-08-03T05:25:17.334Z,19.20
2022-08-03T05:27:46.881Z,19.30
2022-08-03T05:30:31.500Z,19.30
2022-08-03T05:33:04.444Z,19.40
2022-08-03T05:35:55.962Z,19.40
2022-08-03T05:38:28.667Z,19.70
2022-08-03T05:41:21.125Z,19.90
2022-08-03T05:43:47.838Z,20.00
2022-08-03T05:46:17.331Z,20.20
2022-08-03T05:48:45.458Z,20.20
2022-08-03T05:51:14.870Z,20.30
2022-08-03T05:53:43.728Z,20.40
2022-08-03T05:56:13.928Z,20.50
2022-08-03T05:58:43.409Z,20.60
2022-08-03T06:01:10.469Z,20.70
2022-08-03T06:03:37.444Z,20.80
2022-08-03T06:06:09.352Z,20.90
2022-08-03T06:08:36.431Z,21.00
2022-08-03T06:11:04.110Z,21.10
2022-08-03T06:13:31.352Z,21.20
2022-08-03T06:15:58.777Z,21.20
2022-08-03T06:18:30.383Z,21.20
2022-08-03T06:21:09.565Z,21.30
2022-08-03T06:23:54.076Z,21.30
2022-08-03T06:26:29.010Z,21.30
2022-08-03T06:28:58.179Z,21.40
2022-08-03T06:31:33.395Z,21.50
2022-08-03T06:34:34.095Z,21.60
2022-08-03T06:36:52.581Z,21.80
2022-08-03T06:39:20.266Z,21.90
2022-08-03T06:41:47.073Z,22.10
2022-08-03T06:44:14.358Z,21.70
2022-08-03T06:46:42.277Z,21.50
2022-08-03T06:49:09.198Z,21.40
2022-08-03T06:52:03.660Z,21.40
2022-08-03T06:54:25.260Z,21.40
2022-08-03T06:56:52.571Z,21.50
2022-08-03T07:00:09.251Z,21.50
2022-08-03T07:02:06.627Z,21.60
2022-08-03T07:04:33.982Z,21.70
2022-08-03T07:07:00.936Z,21.80
2022-08-03T07:09:30.235Z,21.90
2022-08-03T07:11:59.944Z,22.00
2022-08-03T07:14:27.032Z,22.10
2022-08-03T07:16:58.754Z,22.10
2022-08-03T07:19:26.117Z,22.20
2022-08-03T07:21:56.376Z,22.40
2022-08-03T07:24:29.226Z,22.50
2022-08-03T07:26:58.327Z,22.50
2022-08-03T07:29:25.339Z,22.60
2022-08-03T07:31:52.206Z,22.60
2022-08-03T07:34:19.394Z,22.70
2022-08-03T07:36:46.323Z,22.80
2022-08-03T07:39:18.046Z,22.80
2022-08-03T07:41:51.539Z,22.80
2022-08-03T07:44:19.421Z,22.80
2022-08-03T07:46:48.720Z,22.90
2022-08-03T07:49:16.224Z,23.00
2022-08-03T07:51:43.210Z,23.10
2022-08-03T07:54:10.316Z,23.10
2022-08-03T07:56:37.642Z,23.20
2022-08-03T07:59:04.716Z,23.30
2022-08-03T08:01:36.694Z,23.30
2022-08-03T08:04:06.780Z,23.40
2022-08-03T08:06:36.591Z,23.40
2022-08-03T08:09:03.631Z,23.30
2022-08-03T08:11:30.572Z,23.30
2022-08-03T08:13:57.469Z,23.40
2022-08-03T08:16:26.577Z,23.50
2022-08-03T08:18:55.986Z,23.50
2022-08-03T08:21:25.067Z,23.60
2022-08-03T08:24:18.133Z,23.60
2022-08-03T08:26:46.678Z,23.60
2022-08-03T08:29:14.283Z,23.70
2022-08-03T08:31:41.715Z,23.80
2022-08-03T08:34:09.252Z,23.90
2022-08-03T08:36:38.615Z,24.00
2022-08-03T08:39:05.953Z,24.00
2022-08-03T08:41:34.802Z,24.00
2022-08-03T08:44:02.387Z,24.10
2022-08-03T08:46:33.034Z,24.20
2022-08-03T08:49:04.852Z,24.30
2022-08-03T08:51:59.583Z,24.40
2022-08-03T08:54:31.515Z,24.50
2022-08-03T08:57:12.495Z,24.70
2022-08-03T08:59:56.987Z,24.80
2022-08-03T09:02:29.912Z,24.80
2022-08-03T09:04:58.342Z,25.00
2022-08-03T09:07:27.835Z,25.00
2022-08-03T09:10:10.565Z,25.00
2022-08-03T09:12:44.858Z,25.00
2022-08-03T09:15:28.766Z,25.00
2022-08-03T09:18:00.159Z,25.00
2022-08-03T09:20:29.616Z,25.10
2022-08-03T09:23:01.225Z,25.10
2022-08-03T09:25:36.667Z,25.10
2022-08-03T09:28:11.091Z,25.20
2022-08-03T09:30:39.845Z,25.30
2022-08-03T09:33:12.311Z,25.50
2022-08-03T09:35:54.500Z,25.70
2022-08-03T09:38:27.496Z,26.00
2022-08-03T09:41:00.436Z,26.30
2022-08-03T09:43:28.560Z,26.60
2022-08-03T09:46:07.387Z,26.80
2022-08-03T09:48:39.658Z,27.20
2022-08-03T09:51:14.496Z,27.50
2022-08-03T09:54:00.292Z,27.80
2022-08-03T09:56:44.253Z,27.60
2022-08-03T09:59:15.010Z,27.70
2022-08-03T10:01:42.395Z,28.00
2022-08-03T10:04:22.727Z,28.40
2022-08-03T10:07:30.972Z,28.90
2022-08-03T10:10:30.192Z,29.10
2022-08-03T10:12:52.777Z,28.90
2022-08-03T10:16:21.761Z,29.00
2022-08-03T10:18:11.194Z,29.20
2022-08-03T10:20:44.311Z,29.30
2022-08-03T10:23:12.201Z,29.40
2022-08-03T10:25:41.294Z,29.70
2022-08-03T10:28:19.188Z,30.10
2022-08-03T10:30:51.356Z,30.50
2022-08-03T10:33:51.417Z,30.80
2022-08-03T10:36:13.660Z,30.70
2022-08-03T10:38:57.294Z,30.40
2022-08-03T10:41:46.310Z,30.30
2022-08-03T10:44:20.355Z,30.60
2022-08-03T10:46:53.407Z,30.90
2022-08-03T10:49:34.605Z,31.10
2022-08-03T10:52:10.452Z,31.20
2022-08-03T10:55:07.497Z,31.30
2022-08-03T10:57:59.090Z,31.50
2022-08-03T11:00:30.502Z,32.00
2022-08-03T11:03:16.174Z,32.20
2022-08-03T11:05:49.678Z,32.20
2022-08-03T11:08:24.494Z,33.50
2022-08-03T11:10:58.667Z,33.10
2022-08-03T11:13:28.311Z,33.20
2022-08-03T11:16:02.257Z,33.10
2022-08-03T11:18:33.522Z,32.90
2022-08-03T11:21:04.866Z,33.00
2022-08-03T11:24:05.372Z,33.00
2022-08-03T11:26:36.491Z,32.90
2022-08-03T11:29:31.897Z,32.60
2022-08-03T11:31:59.505Z,32.70
2022-08-03T11:34:28.685Z,32.70
2022-08-03T11:37:14.812Z,32.60
2022-08-03T11:39:46.665Z,32.80
2022-08-03T11:42:22.944Z,33.00
2022-08-03T11:44:58.002Z,33.10
2022-08-03T11:47:29.709Z,33.10
2022-08-03T11:50:02.163Z,33.10
2022-08-03T11:52:35.657Z,33.20
2022-08-03T11:55:03.555Z,33.30
2022-08-03T11:59:03.379Z,33.50
2022-08-03T12:00:32.596Z,33.40
2022-08-03T12:03:03.468Z,33.40
2022-08-03T12:05:37.544Z,33.50
2022-08-03T12:08:07.356Z,33.40
2022-08-03T12:10:37.829Z,33.60
2022-08-03T12:13:56.735Z,33.60
2022-08-03T12:15:59.321Z,33.80
2022-08-03T12:18:32.787Z,34.10
2022-08-03T12:21:09.586Z,33.80
2022-08-03T12:23:41.221Z,33.60
2022-08-03T12:26:10.207Z,33.40
2022-08-03T12:28:49.791Z,33.40
2022-08-03T12:31:17.230Z,33.50
2022-08-03T12:34:08.351Z,33.60
2022-08-03T12:36:36.680Z,33.90
2022-08-03T12:39:11.899Z,34.30
2022-08-03T12:41:42.910Z,34.60
2022-08-03T12:44:12.585Z,34.40
2022-08-03T12:46:47.990Z,34.60
2022-08-03T12:49:18.793Z,34.50
2022-08-03T12:51:46.317Z,34.60
2022-08-03T12:54:17.833Z,34.70
2022-08-03T12:57:16.206Z,34.70
2022-08-03T12:59:53.251Z,34.60
2022-08-03T13:02:26.617Z,34.60
2022-08-03T13:04:54.604Z,34.70
2022-08-03T13:07:24.696Z,34.70
2022-08-03T13:09:55.947Z,34.70
2022-08-03T13:12:24.070Z,34.40
2022-08-03T13:14:58.205Z,34.30
2022-08-03T13:17:28.706Z,34.20
2022-08-03T13:19:58.427Z,34.40
2022-08-03T13:22:28.915Z,34.60
2022-08-03T13:24:57.651Z,34.70
2022-08-03T13:28:03.922Z,34.70
2022-08-03T13:30:29.729Z,34.60
2022-08-03T13:32:58.689Z,34.60
2022-08-03T13:35:26.048Z,34.60
2022-08-03T13:37:53.463Z,34.40
2022-08-03T13:40:23.825Z,34.20
2022-08-03T13:42:57.134Z,34.30
2022-08-03T13:45:27.543Z,34.40
2022-08-03T13:47:57.079Z,34.50
2022-08-03T13:50:26.514Z,34.50
2022-08-03T13:52:53.455Z,34.50
2022-08-03T13:55:20.566Z,34.40
2022-08-03T13:58:06.450Z,34.30
2022-08-03T14:00:34.661Z,34.40
2022-08-03T14:03:13.284Z,34.40
2022-08-03T14:05:43.056Z,34.00
2022-08-03T14:08:10.433Z,33.70
2022-08-03T14:10:40.049Z,33.40
2022-08-03T14:13:11.610Z,33.50
2022-08-03T14:15:39.215Z,33.80
2022-08-03T14:18:15.624Z,34.10
2022-08-03T14:20:49.986Z,34.30
2022-08-03T14:23:21.450Z,34.30
2022-08-03T14:25:51.799Z,34.00
2022-08-03T14:28:24.302Z,33.90
2022-08-03T14:30:58.775Z,33.60
2022-08-03T14:33:26.153Z,33.40
2022-08-03T14:35:53.506Z,33.50
2022-08-03T14:38:21.829Z,33.60
2022-08-03T14:40:49.763Z,33.60
2022-08-03T14:43:23.117Z,33.80
2022-08-03T14:45:53.839Z,33.80
2022-08-03T14:50:30.491Z,34.20
2022-08-03T14:51:12.136Z,33.90
2022-08-03T14:53:39.491Z,33.80
2022-08-03T14:56:10.623Z,33.80
2022-08-03T14:58:38.643Z,33.80
2022-08-03T15:02:06.399Z,33.50
2022-08-03T15:03:54.619Z,33.30
2022-08-03T15:06:27.262Z,33.30
2022-08-03T15:11:41.432Z,33.60
2022-08-03T15:14:09.539Z,33.90
2022-08-03T15:16:37.393Z,33.90
2022-08-03T15:20:05.565Z,33.90
2022-08-03T15:21:54.111Z,34.30
2022-08-03T15:24:21.281Z,34.90
2022-08-03T15:26:48.407Z,35.40
2022-08-03T15:30:05.550Z,35.60
2022-08-03T15:32:06.054Z,35.60
2022-08-03T15:34:35.817Z,35.80
2022-08-03T15:37:03.427Z,36.10
2022-08-03T15:39:59.783Z,36.00
2022-08-03T15:42:30.786Z,35.80
2022-08-03T15:44:58.078Z,34.60
2022-08-03T15:47:28.267Z,33.50
2022-08-03T15:49:55.636Z,32.80
2022-08-03T15:52:22.698Z,32.30
2022-08-03T15:54:49.800Z,31.80
2022-08-03T15:57:16.775Z,31.50
2022-08-03T15:59:43.732Z,31.30
2022-08-03T16:02:10.796Z,31.10
2022-08-03T16:04:40.774Z,30.90
2022-08-03T16:07:17.588Z,30.70
2022-08-03T16:09:47.074Z,30.60
2022-08-03T16:12:16.605Z,30.40
2022-08-03T16:14:52.773Z,30.20
2022-08-03T16:17:24.580Z,30.10
2022-08-03T16:19:55.003Z,30.00
2022-08-03T16:22:23.825Z,30.00
2022-08-03T16:24:55.049Z,30.00
2022-08-03T16:27:37.353Z,30.00
2022-08-03T16:30:15.931Z,29.90
2022-08-03T16:32:44.784Z,30.00
2022-08-03T16:35:19.742Z,30.00
2022-08-03T16:37:56.833Z,30.00
2022-08-03T16:40:25.767Z,29.80
2022-08-03T16:42:52.706Z,29.80
2022-08-03T16:45:26.042Z,29.80
2022-08-03T16:48:01.640Z,29.70
2022-08-03T16:50:34.113Z,29.60
2022-08-03T16:53:06.316Z,29.60
2022-08-03T16:55:52.171Z,29.50
2022-08-03T16:58:41.661Z,29.40
2022-08-03T17:01:21.472Z,29.30
2022-08-03T17:04:02.046Z,29.30
2022-08-03T17:06:35.867Z,29.20
2022-08-03T17:09:08.710Z,29.10
2022-08-03T17:11:38.920Z,29.00
2022-08-03T17:14:12.175Z,28.90
2022-08-03T17:16:39.730Z,28.90
2022-08-03T17:19:23.405Z,28.80
2022-08-03T17:22:04.196Z,28.80
2022-08-03T17:24:41.431Z,28.80
2022-08-03T17:28:41.934Z,28.80
2022-08-03T17:30:07.681Z,28.80
2022-08-03T17:32:42.275Z,28.70
2022-08-03T17:35:10.464Z,28.60
2022-08-03T17:37:57.698Z,28.60
2022-08-03T17:40:29.305Z,28.50
2022-08-03T17:42:59.299Z,28.40
2022-08-03T17:45:26.303Z,28.40
2022-08-03T17:48:18.639Z,28.30
2022-08-03T17:50:56.157Z,28.10
2022-08-03T17:53:36.331Z,28.10
2022-08-03T17:59:16.651Z,27.80
2022-08-03T18:02:34.679Z,27.70
2022-08-03T18:05:16.421Z,27.70
2022-08-03T18:07:59.532Z,27.60
2022-08-03T18:10:34.819Z,27.60
2022-08-03T18:13:14.128Z,27.50
2022-08-03T18:15:51.905Z,27.50
2022-08-03T18:18:32.242Z,27.40
2022-08-03T18:21:04.589Z,27.30
2022-08-03T18:23:37.050Z,27.20
2022-08-03T18:26:10.691Z,27.20
2022-08-03T18:28:39.714Z,27.10
2022-08-03T18:31:12.560Z,27.00
2022-08-03T18:34:20.338Z,26.90
2022-08-03T18:36:31.998Z,26.80
2022-08-03T18:39:01.771Z,26.80
2022-08-03T18:41:34.926Z,26.70
2022-08-03T18:47:16.248Z,26.60
2022-08-03T18:50:07.912Z,26.60
2022-08-03T18:52:53.299Z,26.50
2022-08-03T18:55:33.484Z,26.40
2022-08-03T18:58:15.860Z,26.40
2022-08-03T19:01:00.854Z,26.30
2022-08-03T19:03:41.438Z,26.20
2022-08-03T19:06:22.673Z,26.10
2022-08-03T19:08:55.762Z,25.90
2022-08-03T19:12:12.592Z,25.80
2022-08-03T19:14:52.454Z,25.60
2022-08-03T19:20:13.372Z,25.30
2022-08-03T19:22:45.849Z,25.20
2022-08-03T19:25:15.486Z,25.10
2022-08-03T19:27:45.405Z,25.00
2022-08-03T19:30:35.672Z,24.90
2022-08-03T19:33:11.094Z,24.80
2022-08-03T19:35:55.402Z,24.70
2022-08-03T19:38:28.335Z,24.60
2022-08-03T19:41:03.545Z,24.50
2022-08-03T19:43:49.469Z,24.50
2022-08-03T19:46:22.288Z,24.40
2022-08-03T19:49:15.360Z,24.30
2022-08-03T19:52:01.827Z,24.20
2022-08-03T19:54:53.137Z,24.10
2022-08-03T19:57:27.236Z,24.00
2022-08-03T19:59:56.387Z,23.90
2022-08-03T20:02:26.171Z,23.90
2022-08-03T20:04:59.917Z,23.80
2022-08-03T20:07:29.207Z,23.80
2022-08-03T20:09:57.679Z,23.70
2022-08-03T20:12:34.386Z,23.70
2022-08-03T20:15:09.100Z,23.70
2022-08-03T20:17:56.884Z,23.60
2022-08-03T20:20:35.683Z,23.60
2022-08-03T20:23:24.057Z,23.50
2022-08-03T20:25:58.819Z,23.50
2022-08-03T20:28:32.208Z,23.40
2022-08-03T20:30:59.910Z,23.40
2022-08-03T20:33:46.187Z,23.30
2022-08-03T20:36:15.919Z,23.30
2022-08-03T20:38:47.717Z,23.30
2022-08-03T20:41:16.824Z,23.20
2022-08-03T20:43:49.427Z,23.20
2022-08-03T20:46:31.032Z,23.20
2022-08-03T20:49:04.765Z,23.10
2022-08-03T20:51:49.681Z,23.10
2022-08-03T20:54:30.600Z,23.00
2022-08-03T20:57:00.653Z,23.00
2022-08-03T20:59:46.903Z,22.90
2022-08-03T21:05:08.921Z,22.90
2022-08-03T21:08:04.951Z,22.90
2022-08-03T21:10:35.862Z,22.80
2022-08-03T21:12:59.142Z,26.70
2022-08-03T21:13:04.252Z,28.00
2022-08-03T21:13:08.995Z,25.40
2022-08-03T21:13:12.319Z,22.90
2022-08-03T21:13:18.478Z,22.80
2022-08-03T21:16:06.836Z,22.80
2022-08-03T21:18:49.773Z,22.70
2022-08-03T21:21:19.031Z,22.70
2022-08-03T21:23:49.884Z,22.70
2022-08-03T21:26:27.735Z,22.70
2022-08-03T21:28:57.715Z,22.70
2022-08-03T21:31:29.385Z,22.70
2022-08-03T21:34:02.961Z,22.70
2022-08-03T21:36:37.959Z,22.60
2022-08-03T21:39:07.794Z,22.60
2022-08-03T21:41:38.495Z,22.60
2022-08-03T21:44:06.784Z,22.50
2022-08-03T21:46:40.323Z,22.50
2022-08-03T21:49:52.108Z,22.50
2022-08-03T21:51:59.454Z,22.50
2022-08-03T21:54:36.422Z,22.40
2022-08-03T21:57:20.366Z,22.40
2022-08-03T21:59:57.026Z,22.40
2022-08-03T22:02:31.427Z,22.30
2022-08-03T22:05:05.085Z,22.30
2022-08-03T22:07:36.670Z,22.30
2022-08-03T22:10:06.528Z,22.30
2022-08-03T22:12:34.490Z,22.30
2022-08-03T22:15:04.636Z,22.20
2022-08-03T22:17:55.384Z,22.30
2022-08-03T22:20:24.112Z,22.20
2022-08-03T22:22:56.117Z,22.20
2022-08-03T22:25:33.745Z,22.20
2022-08-03T22:28:09.397Z,22.20
2022-08-03T22:30:37.713Z,22.10
2022-08-03T22:33:11.371Z,22.10
2022-08-03T22:35:51.488Z,22.10
2022-08-03T22:38:18.873Z,22.00
2022-08-03T22:40:51.151Z,22.00
2022-08-03T22:43:25.234Z,22.00
2022-08-03T22:46:11.196Z,22.00
2022-08-03T22:48:40.721Z,21.90
2022-08-03T22:51:11.556Z,21.90
2022-08-03T22:53:40.350Z,21.90
2022-08-03T22:56:10.203Z,21.80
2022-08-03T22:58:37.223Z,21.90
2022-08-03T23:01:07.529Z,21.90
2022-08-03T23:04:00.285Z,21.80
2022-08-03T23:06:25.555Z,21.80
2022-08-03T23:08:53.402Z,21.80
2022-08-03T23:11:21.627Z,21.80
2022-08-03T23:13:54.143Z,21.70
2022-08-03T23:16:29.102Z,21.70
2022-08-03T23:19:00.094Z,21.70
2022-08-03T23:21:53.327Z,21.70
2022-08-03T23:24:30.247Z,21.70
2022-08-03T23:26:58.390Z,21.60
2022-08-03T23:29:28.806Z,21.60
2022-08-03T23:31:57.484Z,21.60
2022-08-03T23:34:43.486Z,21.60
2022-08-03T23:37:14.560Z,21.60
2022-08-03T23:39:45.330Z,21.60
2022-08-03T23:42:15.092Z,21.50
2022-08-03T23:44:43.702Z,21.50
2022-08-03T23:47:14.333Z,21.50
2022-08-03T23:49:43.944Z,21.60
2022-08-03T23:52:15.960Z,21.50
2022-08-03T23:55:16.225Z,21.50
2022-08-03T23:57:49.213Z,21.60
